sensor_id;sensor_type;location;lat;lon;timestamp;pressure;altitude;pressure_sealevel;temperature
19282;BMP180;9774;52.034;5.342;2023-11-22T00:02:18;102564.00;;;11.20
19282;BMP180;9774;52.034;5.342;2023-11-22T00:04:46;102568.00;;;11.10
19282;BMP180;9774;52.034;5.342;2023-11-22T00:07:25;102556.00;;;11.10
19282;BMP180;9774;52.034;5.342;2023-11-22T00:09:56;102566.00;;;11.10
19282;BMP180;9774;52.034;5.342;2023-11-22T00:12:24;102556.00;;;11.10
19282;BMP180;9774;52.034;5.342;2023-11-22T00:14:52;102560.00;;;11.20
19282;BMP180;9774;52.034;5.342;2023-11-22T00:17:19;102562.00;;;11.10
19282;BMP180;9774;52.034;5.342;2023-11-22T00:19:47;102566.00;;;11.10
19282;BMP180;9774;52.034;5.342;2023-11-22T00:22:14;102581.00;;;11.20
19282;BMP180;9774;52.034;5.342;2023-11-22T00:24:42;102585.00;;;11.20
19282;BMP180;9774;52.034;5.342;2023-11-22T00:27:12;102582.00;;;11.20
19282;BMP180;9774;52.034;5.342;2023-11-22T00:29:41;102578.00;;;11.20
19282;BMP180;9774;52.034;5.342;2023-11-22T00:32:08;102584.00;;;11.20
19282;BMP180;9774;52.034;5.342;2023-11-22T00:34:35;102587.00;;;11.20
19282;BMP180;9774;52.034;5.342;2023-11-22T00:37:02;102589.00;;;11.20
19282;BMP180;9774;52.034;5.342;2023-11-22T00:39:29;102587.00;;;11.20
19282;BMP180;9774;52.034;5.342;2023-11-22T00:41:56;102583.00;;;11.20
19282;BMP180;9774;52.034;5.342;2023-11-22T00:44:24;102584.00;;;11.20
19282;BMP180;9774;52.034;5.342;2023-11-22T00:46:51;102583.00;;;11.30
19282;BMP180;9774;52.034;5.342;2023-11-22T00:49:18;102572.00;;;11.30
19282;BMP180;9774;52.034;5.342;2023-11-22T00:51:45;102579.00;;;11.30
19282;BMP180;9774;52.034;5.342;2023-11-22T00:54:13;102580.00;;;11.30
19282;BMP180;9774;52.034;5.342;2023-11-22T00:56:40;102578.00;;;11.30
19282;BMP180;9774;52.034;5.342;2023-11-22T00:59:08;102587.00;;;11.30
19282;BMP180;9774;52.034;5.342;2023-11-22T01:01:36;102585.00;;;11.20
19282;BMP180;9774;52.034;5.342;2023-11-22T01:04:04;102596.00;;;11.20
19282;BMP180;9774;52.034;5.342;2023-11-22T01:06:32;102599.00;;;11.20
19282;BMP180;9774;52.034;5.342;2023-11-22T01:09:00;102611.00;;;11.20
19282;BMP180;9774;52.034;5.342;2023-11-22T01:11:28;102606.00;;;11.20
19282;BMP180;9774;52.034;5.342;2023-11-22T01:13:55;102616.00;;;11.20
19282;BMP180;9774;52.034;5.342;2023-11-22T01:16:22;102624.00;;;11.20
19282;BMP180;9774;52.034;5.342;2023-11-22T01:18:51;102646.00;;;11.20
19282;BMP180;9774;52.034;5.342;2023-11-22T01:21:18;102642.00;;;11.20
19282;BMP180;9774;52.034;5.342;2023-11-22T01:23:46;102648.00;;;11.20
19282;BMP180;9774;52.034;5.342;2023-11-22T01:26:13;102651.00;;;11.10
19282;BMP180;9774;52.034;5.342;2023-11-22T01:28:40;102651.00;;;11.10
19282;BMP180;9774;52.034;5.342;2023-11-22T01:31:12;102644.00;;;11.10
19282;BMP180;9774;52.034;5.342;2023-11-22T01:33:39;102648.00;;;11.10
19282;BMP180;9774;52.034;5.342;2023-11-22T01:36:08;102658.00;;;11.10
19282;BMP180;9774;52.034;5.342;2023-11-22T01:38:35;102656.00;;;11.10
19282;BMP180;9774;52.034;5.342;2023-11-22T01:41:05;102656.00;;;11.10
19282;BMP180;9774;52.034;5.342;2023-11-22T01:43:32;102653.00;;;11.10
19282;BMP180;9774;52.034;5.342;2023-11-22T01:46:00;102656.00;;;11.00
19282;BMP180;9774;52.034;5.342;2023-11-22T01:48:27;102654.00;;;11.00
19282;BMP180;9774;52.034;5.342;2023-11-22T01:50:54;102664.00;;;11.00
19282;BMP180;9774;52.034;5.342;2023-11-22T01:53:23;102653.00;;;11.00
19282;BMP180;9774;52.034;5.342;2023-11-22T01:55:51;102639.00;;;11.00
19282;BMP180;9774;52.034;5.342;2023-11-22T01:58:18;102638.00;;;11.00
19282;BMP180;9774;52.034;5.342;2023-11-22T02:00:49;102640.00;;;10.90
19282;BMP180;9774;52.034;5.342;2023-11-22T02:03:17;102641.00;;;11.00
19282;BMP180;9774;52.034;5.342;2023-11-22T02:05:45;102633.00;;;10.90
19282;BMP180;9774;52.034;5.342;2023-11-22T02:08:13;102643.00;;;10.90
19282;BMP180;9774;52.034;5.342;2023-11-22T02:10:41;102647.00;;;10.90
19282;BMP180;9774;52.034;5.342;2023-11-22T02:13:10;102649.00;;;10.90
19282;BMP180;9774;52.034;5.342;2023-11-22T02:15:37;102654.00;;;10.90
19282;BMP180;9774;52.034;5.342;2023-11-22T02:18:04;102656.00;;;10.90
19282;BMP180;9774;52.034;5.342;2023-11-22T02:20:32;102656.00;;;10.90
19282;BMP180;9774;52.034;5.342;2023-11-22T02:23:08;102658.00;;;10.80
19282;BMP180;9774;52.034;5.342;2023-11-22T02:25:35;102662.00;;;10.80
19282;BMP180;9774;52.034;5.342;2023-11-22T02:28:03;102657.00;;;10.80
19282;BMP180;9774;52.034;5.342;2023-11-22T02:30:30;102661.00;;;10.80
19282;BMP180;9774;52.034;5.342;2023-11-22T02:32:57;102660.00;;;10.80
19282;BMP180;9774;52.034;5.342;2023-11-22T02:35:24;102656.00;;;10.80
19282;BMP180;9774;52.034;5.342;2023-11-22T02:37:52;102650.00;;;10.70
19282;BMP180;9774;52.034;5.342;2023-11-22T02:40:22;102643.00;;;10.70
19282;BMP180;9774;52.034;5.342;2023-11-22T02:42:51;102650.00;;;10.70
19282;BMP180;9774;52.034;5.342;2023-11-22T02:45:26;102649.00;;;10.60
19282;BMP180;9774;52.034;5.342;2023-11-22T02:47:54;102644.00;;;10.70
19282;BMP180;9774;52.034;5.342;2023-11-22T02:50:21;102642.00;;;10.70
19282;BMP180;9774;52.034;5.342;2023-11-22T02:52:48;102644.00;;;10.70
19282;BMP180;9774;52.034;5.342;2023-11-22T02:55:16;102634.00;;;10.70
19282;BMP180;9774;52.034;5.342;2023-11-22T02:57:44;102632.00;;;10.70
19282;BMP180;9774;52.034;5.342;2023-11-22T03:00:12;102629.00;;;10.60
19282;BMP180;9774;52.034;5.342;2023-11-22T03:02:40;102633.00;;;10.60
19282;BMP180;9774;52.034;5.342;2023-11-22T03:05:08;102638.00;;;10.60
19282;BMP180;9774;52.034;5.342;2023-11-22T03:07:36;102640.00;;;10.60
19282;BMP180;9774;52.034;5.342;2023-11-22T03:10:05;102624.00;;;10.50
19282;BMP180;9774;52.034;5.342;2023-11-22T03:12:33;102638.00;;;10.50
19282;BMP180;9774;52.034;5.342;2023-11-22T03:15:01;102640.00;;;10.40
19282;BMP180;9774;52.034;5.342;2023-11-22T03:17:29;102652.00;;;10.40
19282;BMP180;9774;52.034;5.342;2023-11-22T03:19:57;102661.00;;;10.40
19282;BMP180;9774;52.034;5.342;2023-11-22T03:22:24;102666.00;;;10.30
19282;BMP180;9774;52.034;5.342;2023-11-22T03:24:51;102670.00;;;10.30
19282;BMP180;9774;52.034;5.342;2023-11-22T03:27:19;102675.00;;;10.20
19282;BMP180;9774;52.034;5.342;2023-11-22T03:29:47;102669.00;;;10.20
19282;BMP180;9774;52.034;5.342;2023-11-22T03:32:16;102683.00;;;10.20
19282;BMP180;9774;52.034;5.342;2023-11-22T03:34:44;102685.00;;;10.10
19282;BMP180;9774;52.034;5.342;2023-11-22T03:37:11;102691.00;;;10.10
19282;BMP180;9774;52.034;5.342;2023-11-22T03:39:38;102693.00;;;10.10
19282;BMP180;9774;52.034;5.342;2023-11-22T03:42:06;102707.00;;;10.10
19282;BMP180;9774;52.034;5.342;2023-11-22T03:44:33;102709.00;;;10.10
19282;BMP180;9774;52.034;5.342;2023-11-22T03:47:00;102712.00;;;10.00
19282;BMP180;9774;52.034;5.342;2023-11-22T03:49:28;102719.00;;;10.00
19282;BMP180;9774;52.034;5.342;2023-11-22T03:51:55;102724.00;;;10.00
19282;BMP180;9774;52.034;5.342;2023-11-22T03:54:22;102729.00;;;10.00
19282;BMP180;9774;52.034;5.342;2023-11-22T03:56:49;102734.00;;;9.90
19282;BMP180;9774;52.034;5.342;2023-11-22T03:59:16;102734.00;;;9.90
19282;BMP180;9774;52.034;5.342;2023-11-22T04:01:44;102734.00;;;9.90
19282;BMP180;9774;52.034;5.342;2023-11-22T04:04:11;102741.00;;;9.90
19282;BMP180;9774;52.034;5.342;2023-11-22T04:06:39;102739.00;;;9.90
19282;BMP180;9774;52.034;5.342;2023-11-22T04:09:06;102742.00;;;9.90
19282;BMP180;9774;52.034;5.342;2023-11-22T04:11:34;102751.00;;;9.90
19282;BMP180;9774;52.034;5.342;2023-11-22T04:14:01;102753.00;;;9.90
19282;BMP180;9774;52.034;5.342;2023-11-22T04:16:28;102755.00;;;9.90
19282;BMP180;9774;52.034;5.342;2023-11-22T04:18:55;102751.00;;;9.90
19282;BMP180;9774;52.034;5.342;2023-11-22T04:21:22;102749.00;;;9.90
19282;BMP180;9774;52.034;5.342;2023-11-22T04:23:51;102754.00;;;9.90
19282;BMP180;9774;52.034;5.342;2023-11-22T04:26:18;102764.00;;;9.90
19282;BMP180;9774;52.034;5.342;2023-11-22T04:28:46;102765.00;;;9.90
19282;BMP180;9774;52.034;5.342;2023-11-22T04:31:13;102768.00;;;9.90
19282;BMP180;9774;52.034;5.342;2023-11-22T04:33:41;102770.00;;;9.90
19282;BMP180;9774;52.034;5.342;2023-11-22T04:36:08;102774.00;;;9.90
19282;BMP180;9774;52.034;5.342;2023-11-22T04:38:35;102773.00;;;9.80
19282;BMP180;9774;52.034;5.342;2023-11-22T04:41:03;102773.00;;;9.80
19282;BMP180;9774;52.034;5.342;2023-11-22T04:43:30;102790.00;;;9.90
19282;BMP180;9774;52.034;5.342;2023-11-22T04:45:57;102786.00;;;9.90
19282;BMP180;9774;52.034;5.342;2023-11-22T04:48:24;102766.00;;;9.90
19282;BMP180;9774;52.034;5.342;2023-11-22T04:50:51;102779.00;;;9.90
19282;BMP180;9774;52.034;5.342;2023-11-22T04:53:19;102775.00;;;9.80
19282;BMP180;9774;52.034;5.342;2023-11-22T04:55:46;102772.00;;;9.90
19282;BMP180;9774;52.034;5.342;2023-11-22T04:58:16;102770.00;;;9.80
19282;BMP180;9774;52.034;5.342;2023-11-22T05:00:43;102767.00;;;9.80
19282;BMP180;9774;52.034;5.342;2023-11-22T05:03:11;102769.00;;;9.80
19282;BMP180;9774;52.034;5.342;2023-11-22T05:05:38;102758.00;;;9.80
19282;BMP180;9774;52.034;5.342;2023-11-22T05:08:05;102750.00;;;9.80
19282;BMP180;9774;52.034;5.342;2023-11-22T05:10:32;102756.00;;;9.80
19282;BMP180;9774;52.034;5.342;2023-11-22T05:12:59;102748.00;;;9.80
19282;BMP180;9774;52.034;5.342;2023-11-22T05:15:28;102750.00;;;9.80
19282;BMP180;9774;52.034;5.342;2023-11-22T05:17:55;102754.00;;;9.80
19282;BMP180;9774;52.034;5.342;2023-11-22T05:20:22;102761.00;;;9.80
19282;BMP180;9774;52.034;5.342;2023-11-22T05:22:49;102766.00;;;9.80
19282;BMP180;9774;52.034;5.342;2023-11-22T05:25:16;102749.00;;;9.80
19282;BMP180;9774;52.034;5.342;2023-11-22T05:27:43;102752.00;;;9.80
19282;BMP180;9774;52.034;5.342;2023-11-22T05:30:11;102753.00;;;9.80
19282;BMP180;9774;52.034;5.342;2023-11-22T05:32:39;102759.00;;;9.80
19282;BMP180;9774;52.034;5.342;2023-11-22T05:35:08;102758.00;;;9.90
19282;BMP180;9774;52.034;5.342;2023-11-22T05:37:35;102754.00;;;9.90
19282;BMP180;9774;52.034;5.342;2023-11-22T05:40:04;102749.00;;;9.90
19282;BMP180;9774;52.034;5.342;2023-11-22T05:42:32;102746.00;;;9.90
19282;BMP180;9774;52.034;5.342;2023-11-22T05:45:01;102770.00;;;9.90
19282;BMP180;9774;52.034;5.342;2023-11-22T05:47:29;102759.00;;;9.90
19282;BMP180;9774;52.034;5.342;2023-11-22T05:49:58;102775.00;;;9.90
19282;BMP180;9774;52.034;5.342;2023-11-22T05:52:25;102772.00;;;10.00
19282;BMP180;9774;52.034;5.342;2023-11-22T05:54:52;102784.00;;;10.00
19282;BMP180;9774;52.034;5.342;2023-11-22T05:57:19;102791.00;;;10.00
19282;BMP180;9774;52.034;5.342;2023-11-22T05:59:46;102784.00;;;10.00
19282;BMP180;9774;52.034;5.342;2023-11-22T06:02:13;102782.00;;;10.10
19282;BMP180;9774;52.034;5.342;2023-11-22T06:04:40;102781.00;;;10.10
19282;BMP180;9774;52.034;5.342;2023-11-22T06:07:09;102782.00;;;10.10
19282;BMP180;9774;52.034;5.342;2023-11-22T06:09:36;102781.00;;;10.10
19282;BMP180;9774;52.034;5.342;2023-11-22T06:12:04;102794.00;;;10.10
19282;BMP180;9774;52.034;5.342;2023-11-22T06:14:31;102794.00;;;10.20
19282;BMP180;9774;52.034;5.342;2023-11-22T06:16:58;102794.00;;;10.20
19282;BMP180;9774;52.034;5.342;2023-11-22T06:19:25;102788.00;;;10.20
19282;BMP180;9774;52.034;5.342;2023-11-22T06:21:52;102781.00;;;10.20
19282;BMP180;9774;52.034;5.342;2023-11-22T06:24:20;102779.00;;;10.20
19282;BMP180;9774;52.034;5.342;2023-11-22T06:26:47;102791.00;;;10.20
19282;BMP180;9774;52.034;5.342;2023-11-22T06:29:15;102797.00;;;10.20
19282;BMP180;9774;52.034;5.342;2023-11-22T06:31:42;102817.00;;;10.20
19282;BMP180;9774;52.034;5.342;2023-11-22T06:34:09;102819.00;;;10.20
19282;BMP180;9774;52.034;5.342;2023-11-22T06:36:36;102820.00;;;10.20
19282;BMP180;9774;52.034;5.342;2023-11-22T06:39:03;102814.00;;;10.20
19282;BMP180;9774;52.034;5.342;2023-11-22T06:41:33;102809.00;;;10.20
19282;BMP180;9774;52.034;5.342;2023-11-22T06:44:00;102795.00;;;10.20
19282;BMP180;9774;52.034;5.342;2023-11-22T06:46:28;102793.00;;;10.20
19282;BMP180;9774;52.034;5.342;2023-11-22T06:48:55;102786.00;;;10.20
19282;BMP180;9774;52.034;5.342;2023-11-22T06:51:23;102787.00;;;10.20
19282;BMP180;9774;52.034;5.342;2023-11-22T06:53:49;102781.00;;;10.20
19282;BMP180;9774;52.034;5.342;2023-11-22T06:56:18;102782.00;;;10.20
19282;BMP180;9774;52.034;5.342;2023-11-22T06:58:46;102787.00;;;10.20
19282;BMP180;9774;52.034;5.342;2023-11-22T07:01:13;102783.00;;;10.20
19282;BMP180;9774;52.034;5.342;2023-11-22T07:03:41;102784.00;;;10.30
19282;BMP180;9774;52.034;5.342;2023-11-22T07:06:08;102777.00;;;10.20
19282;BMP180;9774;52.034;5.342;2023-11-22T07:08:35;102776.00;;;10.20
19282;BMP180;9774;52.034;5.342;2023-11-22T07:11:02;102789.00;;;10.20
19282;BMP180;9774;52.034;5.342;2023-11-22T07:13:31;102790.00;;;10.20
19282;BMP180;9774;52.034;5.342;2023-11-22T07:16:00;102800.00;;;10.20
19282;BMP180;9774;52.034;5.342;2023-11-22T07:18:27;102812.00;;;10.30
19282;BMP180;9774;52.034;5.342;2023-11-22T07:20:54;102801.00;;;10.30
19282;BMP180;9774;52.034;5.342;2023-11-22T07:23:21;102804.00;;;10.30
19282;BMP180;9774;52.034;5.342;2023-11-22T07:25:53;102799.00;;;10.30
19282;BMP180;9774;52.034;5.342;2023-11-22T07:28:21;102801.00;;;10.30
19282;BMP180;9774;52.034;5.342;2023-11-22T07:30:48;102804.00;;;10.30
19282;BMP180;9774;52.034;5.342;2023-11-22T07:33:16;102798.00;;;10.30
19282;BMP180;9774;52.034;5.342;2023-11-22T07:35:46;102793.00;;;10.30
19282;BMP180;9774;52.034;5.342;2023-11-22T07:38:13;102803.00;;;10.30
19282;BMP180;9774;52.034;5.342;2023-11-22T07:40:40;102803.00;;;10.30
19282;BMP180;9774;52.034;5.342;2023-11-22T07:43:07;102811.00;;;10.30
19282;BMP180;9774;52.034;5.342;2023-11-22T07:45:35;102815.00;;;10.30
19282;BMP180;9774;52.034;5.342;2023-11-22T07:48:03;102811.00;;;10.30
19282;BMP180;9774;52.034;5.342;2023-11-22T07:50:32;102816.00;;;10.30
19282;BMP180;9774;52.034;5.342;2023-11-22T07:52:59;102820.00;;;10.30
19282;BMP180;9774;52.034;5.342;2023-11-22T07:55:28;102814.00;;;10.30
19282;BMP180;9774;52.034;5.342;2023-11-22T07:57:55;102809.00;;;10.30
19282;BMP180;9774;52.034;5.342;2023-11-22T08:00:23;102807.00;;;10.30
19282;BMP180;9774;52.034;5.342;2023-11-22T08:02:51;102821.00;;;10.30
19282;BMP180;9774;52.034;5.342;2023-11-22T08:05:20;102835.00;;;10.30
19282;BMP180;9774;52.034;5.342;2023-11-22T08:07:50;102836.00;;;10.30
19282;BMP180;9774;52.034;5.342;2023-11-22T08:10:18;102849.00;;;10.40
19282;BMP180;9774;52.034;5.342;2023-11-22T08:12:46;102859.00;;;10.40
19282;BMP180;9774;52.034;5.342;2023-11-22T08:15:16;102863.00;;;10.40
19282;BMP180;9774;52.034;5.342;2023-11-22T08:17:44;102866.00;;;10.40
19282;BMP180;9774;52.034;5.342;2023-11-22T08:20:12;102869.00;;;10.40
19282;BMP180;9774;52.034;5.342;2023-11-22T08:22:39;102861.00;;;10.40
19282;BMP180;9774;52.034;5.342;2023-11-22T08:25:09;102861.00;;;10.40
19282;BMP180;9774;52.034;5.342;2023-11-22T08:27:39;102862.00;;;10.40
19282;BMP180;9774;52.034;5.342;2023-11-22T08:30:09;102873.00;;;10.40
19282;BMP180;9774;52.034;5.342;2023-11-22T08:32:40;102873.00;;;10.40
19282;BMP180;9774;52.034;5.342;2023-11-22T08:35:09;102874.00;;;10.50
19282;BMP180;9774;52.034;5.342;2023-11-22T08:37:39;102872.00;;;10.50
19282;BMP180;9774;52.034;5.342;2023-11-22T08:40:10;102880.00;;;10.50
19282;BMP180;9774;52.034;5.342;2023-11-22T08:42:42;102878.00;;;10.50
19282;BMP180;9774;52.034;5.342;2023-11-22T08:45:10;102879.00;;;10.60
19282;BMP180;9774;52.034;5.342;2023-11-22T08:47:39;102861.00;;;10.60
19282;BMP180;9774;52.034;5.342;2023-11-22T08:50:08;102868.00;;;10.70
19282;BMP180;9774;52.034;5.342;2023-11-22T08:52:36;102858.00;;;10.70
19282;BMP180;9774;52.034;5.342;2023-11-22T08:55:06;102859.00;;;10.70
19282;BMP180;9774;52.034;5.342;2023-11-22T08:57:35;102869.00;;;10.80
19282;BMP180;9774;52.034;5.342;2023-11-22T09:00:05;102869.00;;;10.80
19282;BMP180;9774;52.034;5.342;2023-11-22T09:02:35;102879.00;;;10.90
19282;BMP180;9774;52.034;5.342;2023-11-22T09:05:03;102863.00;;;10.90
19282;BMP180;9774;52.034;5.342;2023-11-22T09:07:32;102869.00;;;10.90
19282;BMP180;9774;52.034;5.342;2023-11-22T09:10:01;102872.00;;;11.00
19282;BMP180;9774;52.034;5.342;2023-11-22T09:12:36;102867.00;;;11.00
19282;BMP180;9774;52.034;5.342;2023-11-22T09:15:06;102865.00;;;11.10
19282;BMP180;9774;52.034;5.342;2023-11-22T09:17:35;102871.00;;;11.10
19282;BMP180;9774;52.034;5.342;2023-11-22T09:20:06;102871.00;;;11.20
19282;BMP180;9774;52.034;5.342;2023-11-22T09:22:38;102867.00;;;11.30
19282;BMP180;9774;52.034;5.342;2023-11-22T09:25:11;102876.00;;;11.30
19282;BMP180;9774;52.034;5.342;2023-11-22T09:27:39;102878.00;;;11.40
19282;BMP180;9774;52.034;5.342;2023-11-22T09:30:09;102884.00;;;11.50
19282;BMP180;9774;52.034;5.342;2023-11-22T09:32:44;102888.00;;;11.50
19282;BMP180;9774;52.034;5.342;2023-11-22T09:35:11;102899.00;;;11.60
19282;BMP180;9774;52.034;5.342;2023-11-22T09:37:39;102883.00;;;11.60
19282;BMP180;9774;52.034;5.342;2023-11-22T09:40:09;102901.00;;;11.70
19282;BMP180;9774;52.034;5.342;2023-11-22T09:42:39;102888.00;;;11.70
19282;BMP180;9774;52.034;5.342;2023-11-22T09:45:08;102878.00;;;11.80
19282;BMP180;9774;52.034;5.342;2023-11-22T09:47:35;102874.00;;;11.80
19282;BMP180;9774;52.034;5.342;2023-11-22T09:50:06;102888.00;;;11.90
19282;BMP180;9774;52.034;5.342;2023-11-22T09:52:40;102885.00;;;11.90
19282;BMP180;9774;52.034;5.342;2023-11-22T09:55:10;102880.00;;;11.90
19282;BMP180;9774;52.034;5.342;2023-11-22T09:57:40;102887.00;;;11.90
19282;BMP180;9774;52.034;5.342;2023-11-22T10:00:10;102883.00;;;12.00
19282;BMP180;9774;52.034;5.342;2023-11-22T10:02:40;102889.00;;;12.00
19282;BMP180;9774;52.034;5.342;2023-11-22T10:05:08;102887.00;;;12.00
19282;BMP180;9774;52.034;5.342;2023-11-22T10:07:35;102886.00;;;12.10
19282;BMP180;9774;52.034;5.342;2023-11-22T10:10:04;102884.00;;;12.10
19282;BMP180;9774;52.034;5.342;2023-11-22T10:12:36;102867.00;;;12.20
19282;BMP180;9774;52.034;5.342;2023-11-22T10:15:15;102873.00;;;12.10
19282;BMP180;9774;52.034;5.342;2023-11-22T10:17:53;102871.00;;;12.20
19282;BMP180;9774;52.034;5.342;2023-11-22T10:20:23;102849.00;;;12.20
19282;BMP180;9774;52.034;5.342;2023-11-22T10:22:52;102859.00;;;12.30
19282;BMP180;9774;52.034;5.342;2023-11-22T10:25:20;102862.00;;;12.30
19282;BMP180;9774;52.034;5.342;2023-11-22T10:27:49;102869.00;;;12.40
19282;BMP180;9774;52.034;5.342;2023-11-22T10:30:19;102865.00;;;12.40
19282;BMP180;9774;52.034;5.342;2023-11-22T10:32:46;102859.00;;;12.50
19282;BMP180;9774;52.034;5.342;2023-11-22T10:35:13;102863.00;;;12.50
19282;BMP180;9774;52.034;5.342;2023-11-22T10:37:42;102860.00;;;12.50
19282;BMP180;9774;52.034;5.342;2023-11-22T10:40:13;102849.00;;;12.60
19282;BMP180;9774;52.034;5.342;2023-11-22T10:42:42;102842.00;;;12.60
19282;BMP180;9774;52.034;5.342;2023-11-22T10:45:10;102837.00;;;12.60
19282;BMP180;9774;52.034;5.342;2023-11-22T10:47:39;102832.00;;;12.60
19282;BMP180;9774;52.034;5.342;2023-11-22T10:50:09;102829.00;;;12.60
19282;BMP180;9774;52.034;5.342;2023-11-22T10:52:41;102826.00;;;12.70
19282;BMP180;9774;52.034;5.342;2023-11-22T10:55:14;102819.00;;;12.70
19282;BMP180;9774;52.034;5.342;2023-11-22T10:57:46;102828.00;;;12.70
19282;BMP180;9774;52.034;5.342;2023-11-22T11:00:18;102836.00;;;12.80
19282;BMP180;9774;52.034;5.342;2023-11-22T11:02:56;102826.00;;;12.80
19282;BMP180;9774;52.034;5.342;2023-11-22T11:05:30;102832.00;;;12.80
19282;BMP180;9774;52.034;5.342;2023-11-22T11:08:08;102845.00;;;12.90
19282;BMP180;9774;52.034;5.342;2023-11-22T11:10:39;102831.00;;;12.90
19282;BMP180;9774;52.034;5.342;2023-11-22T11:13:07;102826.00;;;12.90
19282;BMP180;9774;52.034;5.342;2023-11-22T11:15:35;102817.00;;;13.00
19282;BMP180;9774;52.034;5.342;2023-11-22T11:18:04;102801.00;;;13.00
19282;BMP180;9774;52.034;5.342;2023-11-22T11:20:33;102781.00;;;13.10
19282;BMP180;9774;52.034;5.342;2023-11-22T11:23:14;102765.00;;;13.10
19282;BMP180;9774;52.034;5.342;2023-11-22T11:25:41;102772.00;;;13.20
19282;BMP180;9774;52.034;5.342;2023-11-22T11:28:11;102763.00;;;13.20
19282;BMP180;9774;52.034;5.342;2023-11-22T11:30:46;102757.00;;;13.20
19282;BMP180;9774;52.034;5.342;2023-11-22T11:33:18;102755.00;;;13.30
19282;BMP180;9774;52.034;5.342;2023-11-22T11:35:49;102757.00;;;13.30
19282;BMP180;9774;52.034;5.342;2023-11-22T11:38:19;102749.00;;;13.30
19282;BMP180;9774;52.034;5.342;2023-11-22T11:40:48;102741.00;;;13.30
19282;BMP180;9774;52.034;5.342;2023-11-22T11:43:22;102739.00;;;13.30
19282;BMP180;9774;52.034;5.342;2023-11-22T11:46:07;102729.00;;;13.30
19282;BMP180;9774;52.034;5.342;2023-11-22T11:48:36;102734.00;;;13.30
19282;BMP180;9774;52.034;5.342;2023-11-22T11:51:03;102730.00;;;13.30
19282;BMP180;9774;52.034;5.342;2023-11-22T11:53:32;102738.00;;;13.30
19282;BMP180;9774;52.034;5.342;2023-11-22T11:56:01;102737.00;;;13.30
19282;BMP180;9774;52.034;5.342;2023-11-22T11:58:28;102742.00;;;13.30
19282;BMP180;9774;52.034;5.342;2023-11-22T12:00:55;102743.00;;;13.30
19282;BMP180;9774;52.034;5.342;2023-11-22T12:03:23;102737.00;;;13.30
19282;BMP180;9774;52.034;5.342;2023-11-22T12:05:51;102733.00;;;13.30
19282;BMP180;9774;52.034;5.342;2023-11-22T12:08:18;102737.00;;;13.30
19282;BMP180;9774;52.034;5.342;2023-11-22T12:10:46;102737.00;;;13.40
19282;BMP180;9774;52.034;5.342;2023-11-22T12:13:17;102727.00;;;13.40
19282;BMP180;9774;52.034;5.342;2023-11-22T12:15:45;102732.00;;;13.40
19282;BMP180;9774;52.034;5.342;2023-11-22T12:18:12;102722.00;;;13.50
19282;BMP180;9774;52.034;5.342;2023-11-22T12:20:39;102730.00;;;13.60
19282;BMP180;9774;52.034;5.342;2023-11-22T12:23:09;102737.00;;;13.60
19282;BMP180;9774;52.034;5.342;2023-11-22T12:25:37;102741.00;;;13.70
19282;BMP180;9774;52.034;5.342;2023-11-22T12:28:05;102718.00;;;13.70
19282;BMP180;9774;52.034;5.342;2023-11-22T12:30:33;102711.00;;;13.70
19282;BMP180;9774;52.034;5.342;2023-11-22T12:33:02;102722.00;;;13.80
19282;BMP180;9774;52.034;5.342;2023-11-22T12:35:30;102711.00;;;13.80
19282;BMP180;9774;52.034;5.342;2023-11-22T12:37:59;102719.00;;;13.90
19282;BMP180;9774;52.034;5.342;2023-11-22T12:40:29;102711.00;;;14.00
19282;BMP180;9774;52.034;5.342;2023-11-22T12:43:00;102711.00;;;14.10
19282;BMP180;9774;52.034;5.342;2023-11-22T12:45:30;102704.00;;;14.10
19282;BMP180;9774;52.034;5.342;2023-11-22T12:48:21;102696.00;;;14.10
19282;BMP180;9774;52.034;5.342;2023-11-22T12:50:49;102700.00;;;14.20
19282;BMP180;9774;52.034;5.342;2023-11-22T12:53:17;102697.00;;;14.20
19282;BMP180;9774;52.034;5.342;2023-11-22T12:55:50;102694.00;;;14.20
19282;BMP180;9774;52.034;5.342;2023-11-22T12:58:18;102688.00;;;14.30
19282;BMP180;9774;52.034;5.342;2023-11-22T13:00:48;102686.00;;;14.20
19282;BMP180;9774;52.034;5.342;2023-11-22T13:03:15;102687.00;;;14.20
19282;BMP180;9774;52.034;5.342;2023-11-22T13:05:45;102681.00;;;14.20
19282;BMP180;9774;52.034;5.342;2023-11-22T13:08:13;102674.00;;;14.10
19282;BMP180;9774;52.034;5.342;2023-11-22T13:10:43;102666.00;;;14.00
19282;BMP180;9774;52.034;5.342;2023-11-22T13:13:13;102670.00;;;14.00
19282;BMP180;9774;52.034;5.342;2023-11-22T13:15:40;102662.00;;;14.00
19282;BMP180;9774;52.034;5.342;2023-11-22T13:18:08;102657.00;;;14.00
19282;BMP180;9774;52.034;5.342;2023-11-22T13:20:35;102656.00;;;14.00
19282;BMP180;9774;52.034;5.342;2023-11-22T13:23:04;102650.00;;;13.90
19282;BMP180;9774;52.034;5.342;2023-11-22T13:25:31;102652.00;;;13.90
19282;BMP180;9774;52.034;5.342;2023-11-22T13:27:58;102648.00;;;13.80
19282;BMP180;9774;52.034;5.342;2023-11-22T13:30:27;102649.00;;;13.80
19282;BMP180;9774;52.034;5.342;2023-11-22T13:32:55;102652.00;;;13.70
19282;BMP180;9774;52.034;5.342;2023-11-22T13:35:23;102657.00;;;13.70
19282;BMP180;9774;52.034;5.342;2023-11-22T13:37:51;102647.00;;;13.60
19282;BMP180;9774;52.034;5.342;2023-11-22T13:40:19;102633.00;;;13.60
19282;BMP180;9774;52.034;5.342;2023-11-22T13:42:49;102642.00;;;13.50
19282;BMP180;9774;52.034;5.342;2023-11-22T13:45:19;102640.00;;;13.50
19282;BMP180;9774;52.034;5.342;2023-11-22T13:47:50;102646.00;;;13.40
19282;BMP180;9774;52.034;5.342;2023-11-22T13:50:20;102656.00;;;13.40
19282;BMP180;9774;52.034;5.342;2023-11-22T13:52:47;102644.00;;;13.40
19282;BMP180;9774;52.034;5.342;2023-11-22T13:55:15;102635.00;;;13.30
19282;BMP180;9774;52.034;5.342;2023-11-22T13:57:45;102635.00;;;13.30
19282;BMP180;9774;52.034;5.342;2023-11-22T14:00:13;102641.00;;;13.30
19282;BMP180;9774;52.034;5.342;2023-11-22T14:02:44;102634.00;;;13.20
19282;BMP180;9774;52.034;5.342;2023-11-22T14:05:13;102645.00;;;13.20
19282;BMP180;9774;52.034;5.342;2023-11-22T14:07:41;102627.00;;;13.20
19282;BMP180;9774;52.034;5.342;2023-11-22T14:10:09;102635.00;;;13.20
19282;BMP180;9774;52.034;5.342;2023-11-22T14:12:37;102633.00;;;13.20
19282;BMP180;9774;52.034;5.342;2023-11-22T14:15:06;102640.00;;;13.20
19282;BMP180;9774;52.034;5.342;2023-11-22T14:17:33;102631.00;;;13.10
19282;BMP180;9774;52.034;5.342;2023-11-22T14:20:00;102624.00;;;13.10